Vanceboro, North Carolina
Current Conditions -  °F | °C
As of 3:54 PM on Sunday 23 Nov 2014 (Local Time) from KEWN Reporting Station
Light Rain Light Rain  
Wind Chill: 62°   Ceiling: 1500
Heat Index: 62°   Visibility: 10mi
Dew Point: 58°   Wind: 5mph
Humidity: 86%   Direction: 120°ESE
Pressure: 30.07"   Gusts: NA
Location:  35.31°N, 77.15°W
Report Text: KEWN 232054Z 12004KT 10SM -RA BKN015 BKN026 BKN038 17/14 A3007 RMK AO2 RAE32B49 SLP181 P0001 60007 T01670144 56018
Loading
Personal Weather Stations






























Interactive Weather Map New forecast layout! Learn more

10-Day Weather Forecast

Advertisements
Track Severe Weather on mobile